sensor_id;sensor_type;location;lat;lon;timestamp;temperature;humidity
14016;DHT22;7083;48.854;9.158;2023-08-01T00:01:33;16.60;99.90
14016;DHT22;7083;48.854;9.158;2023-08-01T00:03:59;16.60;99.90
14016;DHT22;7083;48.854;9.158;2023-08-01T00:06:26;16.50;99.90
14016;DHT22;7083;48.854;9.158;2023-08-01T00:08:53;16.60;99.90
14016;DHT22;7083;48.854;9.158;2023-08-01T00:11:21;16.60;99.90
14016;DHT22;7083;48.854;9.158;2023-08-01T00:13:47;16.60;99.90
14016;DHT22;7083;48.854;9.158;2023-08-01T00:16:14;16.60;99.90
14016;DHT22;7083;48.854;9.158;2023-08-01T00:18:41;16.60;99.90
14016;DHT22;7083;48.854;9.158;2023-08-01T00:21:07;16.60;99.90
14016;DHT22;7083;48.854;9.158;2023-08-01T00:23:35;16.60;99.90
14016;DHT22;7083;48.854;9.158;2023-08-01T00:26:02;16.60;99.90
14016;DHT22;7083;48.854;9.158;2023-08-01T00:28:30;16.60;99.90
14016;DHT22;7083;48.854;9.158;2023-08-01T00:31:04;16.70;99.90
14016;DHT22;7083;48.854;9.158;2023-08-01T00:33:32;16.70;99.90
14016;DHT22;7083;48.854;9.158;2023-08-01T00:35:58;16.70;99.90
14016;DHT22;7083;48.854;9.158;2023-08-01T00:38:25;16.70;99.90
14016;DHT22;7083;48.854;9.158;2023-08-01T00:40:52;16.70;99.90
14016;DHT22;7083;48.854;9.158;2023-08-01T00:43:19;16.70;99.90
14016;DHT22;7083;48.854;9.158;2023-08-01T00:45:47;16.70;99.90
14016;DHT22;7083;48.854;9.158;2023-08-01T00:48:14;16.70;99.90
14016;DHT22;7083;48.854;9.158;2023-08-01T00:50:40;16.70;99.90
14016;DHT22;7083;48.854;9.158;2023-08-01T00:53:07;16.70;99.90
14016;DHT22;7083;48.854;9.158;2023-08-01T00:55:34;16.80;99.90
14016;DHT22;7083;48.854;9.158;2023-08-01T00:58:01;16.70;99.90
14016;DHT22;7083;48.854;9.158;2023-08-01T01:00:28;16.70;99.90
14016;DHT22;7083;48.854;9.158;2023-08-01T01:02:56;16.70;99.90
14016;DHT22;7083;48.854;9.158;2023-08-01T01:05:24;16.70;99.90
14016;DHT22;7083;48.854;9.158;2023-08-01T01:07:52;16.70;99.90
14016;DHT22;7083;48.854;9.158;2023-08-01T01:10:19;16.70;99.90
14016;DHT22;7083;48.854;9.158;2023-08-01T01:12:45;16.70;99.90
14016;DHT22;7083;48.854;9.158;2023-08-01T01:15:12;16.70;99.90
14016;DHT22;7083;48.854;9.158;2023-08-01T01:17:39;16.70;99.90
14016;DHT22;7083;48.854;9.158;2023-08-01T01:20:08;16.70;99.90
14016;DHT22;7083;48.854;9.158;2023-08-01T01:22:36;16.70;99.90
14016;DHT22;7083;48.854;9.158;2023-08-01T01:25:05;16.60;99.90
14016;DHT22;7083;48.854;9.158;2023-08-01T01:27:33;16.60;99.90
14016;DHT22;7083;48.854;9.158;2023-08-01T01:30:01;16.60;99.90
14016;DHT22;7083;48.854;9.158;2023-08-01T01:32:29;16.60;99.90
14016;DHT22;7083;48.854;9.158;2023-08-01T01:34:56;16.60;99.90
14016;DHT22;7083;48.854;9.158;2023-08-01T01:37:24;16.60;99.90
14016;DHT22;7083;48.854;9.158;2023-08-01T01:39:52;16.60;99.90
14016;DHT22;7083;48.854;9.158;2023-08-01T01:42:18;16.60;99.90
14016;DHT22;7083;48.854;9.158;2023-08-01T01:44:45;16.60;99.90
14016;DHT22;7083;48.854;9.158;2023-08-01T01:47:11;16.50;99.90
14016;DHT22;7083;48.854;9.158;2023-08-01T01:49:38;16.50;99.90
14016;DHT22;7083;48.854;9.158;2023-08-01T01:52:05;16.40;99.90
14016;DHT22;7083;48.854;9.158;2023-08-01T01:54:32;16.40;99.90
14016;DHT22;7083;48.854;9.158;2023-08-01T01:57:00;16.40;99.90
14016;DHT22;7083;48.854;9.158;2023-08-01T01:59:27;16.40;99.90
14016;DHT22;7083;48.854;9.158;2023-08-01T02:01:53;16.40;99.90
14016;DHT22;7083;48.854;9.158;2023-08-01T02:04:20;16.40;99.90
14016;DHT22;7083;48.854;9.158;2023-08-01T02:06:47;16.40;99.90
14016;DHT22;7083;48.854;9.158;2023-08-01T02:09:13;16.40;99.90
14016;DHT22;7083;48.854;9.158;2023-08-01T02:11:40;16.40;99.90
14016;DHT22;7083;48.854;9.158;2023-08-01T02:14:08;16.40;99.90
14016;DHT22;7083;48.854;9.158;2023-08-01T02:16:35;16.40;99.90
14016;DHT22;7083;48.854;9.158;2023-08-01T02:19:01;16.40;99.90
14016;DHT22;7083;48.854;9.158;2023-08-01T02:21:28;16.40;99.90
14016;DHT22;7083;48.854;9.158;2023-08-01T02:23:55;16.40;99.90
14016;DHT22;7083;48.854;9.158;2023-08-01T02:26:21;16.40;99.90
14016;DHT22;7083;48.854;9.158;2023-08-01T02:28:49;16.40;99.90
14016;DHT22;7083;48.854;9.158;2023-08-01T02:31:17;16.40;99.90
14016;DHT22;7083;48.854;9.158;2023-08-01T02:33:44;16.40;99.90
14016;DHT22;7083;48.854;9.158;2023-08-01T02:36:10;16.40;99.90
14016;DHT22;7083;48.854;9.158;2023-08-01T02:38:37;16.40;99.90
14016;DHT22;7083;48.854;9.158;2023-08-01T02:41:04;16.40;99.90
14016;DHT22;7083;48.854;9.158;2023-08-01T02:43:30;16.40;99.90
14016;DHT22;7083;48.854;9.158;2023-08-01T02:45:57;16.40;99.90
14016;DHT22;7083;48.854;9.158;2023-08-01T02:48:26;16.40;99.90
14016;DHT22;7083;48.854;9.158;2023-08-01T02:50:53;16.40;99.90
14016;DHT22;7083;48.854;9.158;2023-08-01T02:53:20;16.40;99.90
14016;DHT22;7083;48.854;9.158;2023-08-01T02:55:46;16.40;99.90
14016;DHT22;7083;48.854;9.158;2023-08-01T02:58:13;16.40;99.90
14016;DHT22;7083;48.854;9.158;2023-08-01T03:00:40;16.40;99.90
14016;DHT22;7083;48.854;9.158;2023-08-01T03:03:07;16.40;99.90
14016;DHT22;7083;48.854;9.158;2023-08-01T03:05:37;16.40;99.90
14016;DHT22;7083;48.854;9.158;2023-08-01T03:08:04;16.40;99.90
14016;DHT22;7083;48.854;9.158;2023-08-01T03:10:30;16.50;99.90
14016;DHT22;7083;48.854;9.158;2023-08-01T03:12:57;16.40;99.90
14016;DHT22;7083;48.854;9.158;2023-08-01T03:15:24;16.40;99.90
14016;DHT22;7083;48.854;9.158;2023-08-01T03:17:50;16.40;99.90
14016;DHT22;7083;48.854;9.158;2023-08-01T03:20:17;16.40;99.90
14016;DHT22;7083;48.854;9.158;2023-08-01T03:22:45;16.40;99.90
14016;DHT22;7083;48.854;9.158;2023-08-01T03:25:12;16.40;99.90
14016;DHT22;7083;48.854;9.158;2023-08-01T03:27:38;16.40;99.90
14016;DHT22;7083;48.854;9.158;2023-08-01T03:30:06;16.40;99.90
14016;DHT22;7083;48.854;9.158;2023-08-01T03:32:34;16.40;99.90
14016;DHT22;7083;48.854;9.158;2023-08-01T03:35:01;16.40;99.90
14016;DHT22;7083;48.854;9.158;2023-08-01T03:37:28;16.40;99.90
14016;DHT22;7083;48.854;9.158;2023-08-01T03:39:56;16.40;99.90
14016;DHT22;7083;48.854;9.158;2023-08-01T03:42:22;16.40;99.90
14016;DHT22;7083;48.854;9.158;2023-08-01T03:44:49;16.40;99.90
14016;DHT22;7083;48.854;9.158;2023-08-01T03:47:16;16.40;99.90
14016;DHT22;7083;48.854;9.158;2023-08-01T03:49:42;16.30;99.90
14016;DHT22;7083;48.854;9.158;2023-08-01T03:52:09;16.40;99.90
14016;DHT22;7083;48.854;9.158;2023-08-01T03:54:35;16.30;99.90
14016;DHT22;7083;48.854;9.158;2023-08-01T03:57:04;16.40;99.90
14016;DHT22;7083;48.854;9.158;2023-08-01T03:59:31;16.30;99.90
14016;DHT22;7083;48.854;9.158;2023-08-01T04:01:58;16.30;99.90
14016;DHT22;7083;48.854;9.158;2023-08-01T04:04:24;16.30;99.90
14016;DHT22;7083;48.854;9.158;2023-08-01T04:06:51;16.30;99.90
14016;DHT22;7083;48.854;9.158;2023-08-01T04:09:18;16.30;99.90
14016;DHT22;7083;48.854;9.158;2023-08-01T04:11:44;16.30;99.90
14016;DHT22;7083;48.854;9.158;2023-08-01T04:14:12;16.30;99.90
14016;DHT22;7083;48.854;9.158;2023-08-01T04:16:39;16.30;99.90
14016;DHT22;7083;48.854;9.158;2023-08-01T04:19:06;16.30;99.90
14016;DHT22;7083;48.854;9.158;2023-08-01T04:21:32;16.30;99.90
14016;DHT22;7083;48.854;9.158;2023-08-01T04:23:59;16.30;99.90
14016;DHT22;7083;48.854;9.158;2023-08-01T04:26:25;16.30;99.90
14016;DHT22;7083;48.854;9.158;2023-08-01T04:28:52;16.30;99.90
14016;DHT22;7083;48.854;9.158;2023-08-01T04:31:20;16.30;99.90
14016;DHT22;7083;48.854;9.158;2023-08-01T04:33:47;16.30;99.90
14016;DHT22;7083;48.854;9.158;2023-08-01T04:36:13;16.30;99.90
14016;DHT22;7083;48.854;9.158;2023-08-01T04:38:41;16.30;99.90
14016;DHT22;7083;48.854;9.158;2023-08-01T04:41:08;16.30;99.90
14016;DHT22;7083;48.854;9.158;2023-08-01T04:43:34;16.30;99.90
14016;DHT22;7083;48.854;9.158;2023-08-01T04:46:01;16.30;99.90
14016;DHT22;7083;48.854;9.158;2023-08-01T04:48:29;16.30;99.90
14016;DHT22;7083;48.854;9.158;2023-08-01T04:50:56;16.30;99.90
14016;DHT22;7083;48.854;9.158;2023-08-01T04:53:22;16.30;99.90
14016;DHT22;7083;48.854;9.158;2023-08-01T04:55:50;16.30;99.90
14016;DHT22;7083;48.854;9.158;2023-08-01T04:58:16;16.30;99.90
14016;DHT22;7083;48.854;9.158;2023-08-01T05:00:43;16.30;99.90
14016;DHT22;7083;48.854;9.158;2023-08-01T05:03:10;16.40;99.90
14016;DHT22;7083;48.854;9.158;2023-08-01T05:05:38;16.40;99.90
14016;DHT22;7083;48.854;9.158;2023-08-01T05:08:04;16.40;99.90
14016;DHT22;7083;48.854;9.158;2023-08-01T05:10:31;16.50;99.90
14016;DHT22;7083;48.854;9.158;2023-08-01T05:12:58;16.50;99.90
14016;DHT22;7083;48.854;9.158;2023-08-01T05:15:24;16.50;99.90
14016;DHT22;7083;48.854;9.158;2023-08-01T05:17:52;16.50;99.90
14016;DHT22;7083;48.854;9.158;2023-08-01T05:20:19;16.60;99.90
14016;DHT22;7083;48.854;9.158;2023-08-01T05:22:47;16.60;99.90
14016;DHT22;7083;48.854;9.158;2023-08-01T05:25:14;16.60;99.90
14016;DHT22;7083;48.854;9.158;2023-08-01T05:27:41;16.60;99.90
14016;DHT22;7083;48.854;9.158;2023-08-01T05:30:08;16.60;99.90
14016;DHT22;7083;48.854;9.158;2023-08-01T05:32:35;16.60;99.90
14016;DHT22;7083;48.854;9.158;2023-08-01T05:35:02;16.70;99.90
14016;DHT22;7083;48.854;9.158;2023-08-01T05:37:29;16.70;99.90
14016;DHT22;7083;48.854;9.158;2023-08-01T05:39:57;16.70;99.90
14016;DHT22;7083;48.854;9.158;2023-08-01T05:42:23;16.80;99.90
14016;DHT22;7083;48.854;9.158;2023-08-01T05:44:50;16.80;99.90
14016;DHT22;7083;48.854;9.158;2023-08-01T05:47:17;16.90;99.90
14016;DHT22;7083;48.854;9.158;2023-08-01T05:49:43;17.00;99.90
14016;DHT22;7083;48.854;9.158;2023-08-01T05:52:10;17.00;99.90
14016;DHT22;7083;48.854;9.158;2023-08-01T05:54:36;17.00;99.90
14016;DHT22;7083;48.854;9.158;2023-08-01T05:57:05;17.00;99.90
14016;DHT22;7083;48.854;9.158;2023-08-01T05:59:32;17.10;99.90
14016;DHT22;7083;48.854;9.158;2023-08-01T06:01:59;17.10;99.90
14016;DHT22;7083;48.854;9.158;2023-08-01T06:04:26;17.00;99.90
14016;DHT22;7083;48.854;9.158;2023-08-01T06:06:53;17.00;99.90
14016;DHT22;7083;48.854;9.158;2023-08-01T06:09:19;17.00;99.90
14016;DHT22;7083;48.854;9.158;2023-08-01T06:11:46;17.00;99.90
14016;DHT22;7083;48.854;9.158;2023-08-01T06:14:14;17.10;99.90
14016;DHT22;7083;48.854;9.158;2023-08-01T06:16:42;17.10;99.90
14016;DHT22;7083;48.854;9.158;2023-08-01T06:19:08;17.10;99.90
14016;DHT22;7083;48.854;9.158;2023-08-01T06:21:35;17.10;99.90
14016;DHT22;7083;48.854;9.158;2023-08-01T06:24:02;17.20;99.90
14016;DHT22;7083;48.854;9.158;2023-08-01T06:26:29;17.10;99.90
14016;DHT22;7083;48.854;9.158;2023-08-01T06:28:55;17.00;99.90
14016;DHT22;7083;48.854;9.158;2023-08-01T06:31:23;17.00;99.90
14016;DHT22;7083;48.854;9.158;2023-08-01T06:33:50;16.90;99.90
14016;DHT22;7083;48.854;9.158;2023-08-01T06:36:17;16.80;99.90
14016;DHT22;7083;48.854;9.158;2023-08-01T06:38:44;16.70;99.90
14016;DHT22;7083;48.854;9.158;2023-08-01T06:41:11;16.60;99.90
14016;DHT22;7083;48.854;9.158;2023-08-01T06:43:38;16.50;99.90
14016;DHT22;7083;48.854;9.158;2023-08-01T06:46:05;16.40;99.90
14016;DHT22;7083;48.854;9.158;2023-08-01T06:48:33;16.30;99.90
14016;DHT22;7083;48.854;9.158;2023-08-01T06:51:00;16.10;99.90
14016;DHT22;7083;48.854;9.158;2023-08-01T06:53:27;16.10;99.90
14016;DHT22;7083;48.854;9.158;2023-08-01T06:55:54;16.00;99.90
14016;DHT22;7083;48.854;9.158;2023-08-01T06:58:20;16.00;99.90
14016;DHT22;7083;48.854;9.158;2023-08-01T07:00:47;16.00;99.90
14016;DHT22;7083;48.854;9.158;2023-08-01T07:03:14;16.00;99.90
14016;DHT22;7083;48.854;9.158;2023-08-01T07:05:42;16.10;99.90
14016;DHT22;7083;48.854;9.158;2023-08-01T07:08:08;16.10;99.90
14016;DHT22;7083;48.854;9.158;2023-08-01T07:10:35;16.10;99.90
14016;DHT22;7083;48.854;9.158;2023-08-01T07:13:02;16.20;99.90
14016;DHT22;7083;48.854;9.158;2023-08-01T07:15:29;16.30;99.90
14016;DHT22;7083;48.854;9.158;2023-08-01T07:17:56;16.30;99.90
14016;DHT22;7083;48.854;9.158;2023-08-01T07:20:23;16.30;99.90
14016;DHT22;7083;48.854;9.158;2023-08-01T07:22:51;16.20;99.90
14016;DHT22;7083;48.854;9.158;2023-08-01T07:25:18;16.10;99.90
14016;DHT22;7083;48.854;9.158;2023-08-01T07:27:45;16.00;99.90
14016;DHT22;7083;48.854;9.158;2023-08-01T07:30:12;15.90;99.90
14016;DHT22;7083;48.854;9.158;2023-08-01T07:32:39;15.80;99.90
14016;DHT22;7083;48.854;9.158;2023-08-01T07:35:08;15.80;99.90
14016;DHT22;7083;48.854;9.158;2023-08-01T07:37:34;15.70;99.90
14016;DHT22;7083;48.854;9.158;2023-08-01T07:40:05;15.60;99.90
14016;DHT22;7083;48.854;9.158;2023-08-01T07:42:31;15.70;99.90
14016;DHT22;7083;48.854;9.158;2023-08-01T07:44:58;15.60;99.90
14016;DHT22;7083;48.854;9.158;2023-08-01T07:47:25;15.60;99.90
14016;DHT22;7083;48.854;9.158;2023-08-01T07:49:52;15.70;99.90
14016;DHT22;7083;48.854;9.158;2023-08-01T07:52:19;15.70;99.90
14016;DHT22;7083;48.854;9.158;2023-08-01T07:54:45;15.70;99.90
14016;DHT22;7083;48.854;9.158;2023-08-01T07:57:13;15.80;99.90
14016;DHT22;7083;48.854;9.158;2023-08-01T07:59:40;15.80;99.90
14016;DHT22;7083;48.854;9.158;2023-08-01T08:02:07;16.00;99.90
14016;DHT22;7083;48.854;9.158;2023-08-01T08:04:33;16.10;99.90
14016;DHT22;7083;48.854;9.158;2023-08-01T08:07:00;16.30;99.90
14016;DHT22;7083;48.854;9.158;2023-08-01T08:09:27;16.50;99.90
14016;DHT22;7083;48.854;9.158;2023-08-01T08:11:53;16.60;99.90
14016;DHT22;7083;48.854;9.158;2023-08-01T08:14:24;16.60;99.90
14016;DHT22;7083;48.854;9.158;2023-08-01T08:16:50;16.60;99.90
14016;DHT22;7083;48.854;9.158;2023-08-01T08:19:17;16.60;99.90
14016;DHT22;7083;48.854;9.158;2023-08-01T08:21:44;16.50;99.90
14016;DHT22;7083;48.854;9.158;2023-08-01T08:24:11;16.50;99.90
14016;DHT22;7083;48.854;9.158;2023-08-01T08:26:37;16.50;99.90
14016;DHT22;7083;48.854;9.158;2023-08-01T08:29:05;16.50;99.90
14016;DHT22;7083;48.854;9.158;2023-08-01T08:31:33;16.50;99.90
14016;DHT22;7083;48.854;9.158;2023-08-01T08:33:59;16.50;99.90
14016;DHT22;7083;48.854;9.158;2023-08-01T08:36:26;16.60;99.90
14016;DHT22;7083;48.854;9.158;2023-08-01T08:38:53;16.70;99.90
14016;DHT22;7083;48.854;9.158;2023-08-01T08:41:21;16.80;99.90
14016;DHT22;7083;48.854;9.158;2023-08-01T08:43:48;17.00;99.90
14016;DHT22;7083;48.854;9.158;2023-08-01T08:46:16;17.20;99.90
14016;DHT22;7083;48.854;9.158;2023-08-01T08:48:44;17.30;99.90
14016;DHT22;7083;48.854;9.158;2023-08-01T08:51:12;17.40;99.90
14016;DHT22;7083;48.854;9.158;2023-08-01T08:53:40;17.50;99.90
14016;DHT22;7083;48.854;9.158;2023-08-01T08:56:08;17.60;99.90
14016;DHT22;7083;48.854;9.158;2023-08-01T08:58:36;17.60;99.90
14016;DHT22;7083;48.854;9.158;2023-08-01T09:01:05;17.70;99.90
14016;DHT22;7083;48.854;9.158;2023-08-01T09:03:32;17.60;99.90
14016;DHT22;7083;48.854;9.158;2023-08-01T09:06:04;17.60;99.90
14016;DHT22;7083;48.854;9.158;2023-08-01T09:08:35;17.60;99.90
14016;DHT22;7083;48.854;9.158;2023-08-01T09:11:03;17.50;99.90
14016;DHT22;7083;48.854;9.158;2023-08-01T09:13:29;17.40;99.90
14016;DHT22;7083;48.854;9.158;2023-08-01T09:15:57;17.30;99.90
14016;DHT22;7083;48.854;9.158;2023-08-01T09:18:23;17.20;99.90
14016;DHT22;7083;48.854;9.158;2023-08-01T09:20:50;17.10;99.90
14016;DHT22;7083;48.854;9.158;2023-08-01T09:23:18;17.10;99.90
14016;DHT22;7083;48.854;9.158;2023-08-01T09:25:45;17.10;99.90
14016;DHT22;7083;48.854;9.158;2023-08-01T09:28:16;17.30;99.90
14016;DHT22;7083;48.854;9.158;2023-08-01T09:30:47;17.30;99.90
14016;DHT22;7083;48.854;9.158;2023-08-01T09:33:14;17.40;99.90
14016;DHT22;7083;48.854;9.158;2023-08-01T09:35:41;17.50;99.90
14016;DHT22;7083;48.854;9.158;2023-08-01T09:38:10;17.50;99.90
14016;DHT22;7083;48.854;9.158;2023-08-01T09:40:39;17.60;99.90
14016;DHT22;7083;48.854;9.158;2023-08-01T09:43:06;17.60;99.90
14016;DHT22;7083;48.854;9.158;2023-08-01T09:45:32;17.60;99.90
14016;DHT22;7083;48.854;9.158;2023-08-01T09:47:59;17.70;99.90
14016;DHT22;7083;48.854;9.158;2023-08-01T09:50:26;17.90;99.90
14016;DHT22;7083;48.854;9.158;2023-08-01T09:52:53;18.00;99.90
14016;DHT22;7083;48.854;9.158;2023-08-01T09:55:26;18.00;99.90
14016;DHT22;7083;48.854;9.158;2023-08-01T09:57:57;18.00;99.90
14016;DHT22;7083;48.854;9.158;2023-08-01T10:00:25;17.90;99.90
14016;DHT22;7083;48.854;9.158;2023-08-01T10:02:52;17.80;99.90
14016;DHT22;7083;48.854;9.158;2023-08-01T10:05:20;17.80;99.90
14016;DHT22;7083;48.854;9.158;2023-08-01T10:07:49;17.80;99.90
14016;DHT22;7083;48.854;9.158;2023-08-01T10:10:17;17.80;99.90
14016;DHT22;7083;48.854;9.158;2023-08-01T10:12:45;17.80;99.90
14016;DHT22;7083;48.854;9.158;2023-08-01T10:15:15;17.80;99.90
14016;DHT22;7083;48.854;9.158;2023-08-01T10:17:42;17.80;99.90
14016;DHT22;7083;48.854;9.158;2023-08-01T10:20:10;17.80;99.90
14016;DHT22;7083;48.854;9.158;2023-08-01T10:22:38;17.70;99.90
14016;DHT22;7083;48.854;9.158;2023-08-01T10:25:07;17.70;99.90
14016;DHT22;7083;48.854;9.158;2023-08-01T10:27:35;17.70;99.90
14016;DHT22;7083;48.854;9.158;2023-08-01T10:30:03;17.70;99.90
14016;DHT22;7083;48.854;9.158;2023-08-01T10:32:34;17.70;99.90
14016;DHT22;7083;48.854;9.158;2023-08-01T10:35:00;17.60;99.90
14016;DHT22;7083;48.854;9.158;2023-08-01T10:37:38;17.30;99.90
14016;DHT22;7083;48.854;9.158;2023-08-01T10:40:06;17.10;99.90
14016;DHT22;7083;48.854;9.158;2023-08-01T10:42:38;17.00;99.90
14016;DHT22;7083;48.854;9.158;2023-08-01T10:45:05;17.00;99.90
14016;DHT22;7083;48.854;9.158;2023-08-01T10:47:33;17.00;99.90
14016;DHT22;7083;48.854;9.158;2023-08-01T10:50:00;16.90;99.90
14016;DHT22;7083;48.854;9.158;2023-08-01T10:52:28;16.90;99.90
14016;DHT22;7083;48.854;9.158;2023-08-01T10:54:59;17.00;99.90
14016;DHT22;7083;48.854;9.158;2023-08-01T10:57:27;17.10;99.90
14016;DHT22;7083;48.854;9.158;2023-08-01T10:59:55;17.20;99.90
14016;DHT22;7083;48.854;9.158;2023-08-01T11:02:23;17.00;99.90
14016;DHT22;7083;48.854;9.158;2023-08-01T11:04:59;17.00;99.90
14016;DHT22;7083;48.854;9.158;2023-08-01T11:07:26;17.00;99.90
14016;DHT22;7083;48.854;9.158;2023-08-01T11:10:04;16.90;99.90
14016;DHT22;7083;48.854;9.158;2023-08-01T11:12:34;16.90;99.90
14016;DHT22;7083;48.854;9.158;2023-08-01T11:15:01;16.90;99.90
14016;DHT22;7083;48.854;9.158;2023-08-01T11:17:28;16.90;99.90
14016;DHT22;7083;48.854;9.158;2023-08-01T11:20:02;17.10;99.90
14016;DHT22;7083;48.854;9.158;2023-08-01T11:22:30;17.30;99.90
14016;DHT22;7083;48.854;9.158;2023-08-01T11:24:57;17.30;99.90
14016;DHT22;7083;48.854;9.158;2023-08-01T11:27:24;17.30;99.90
14016;DHT22;7083;48.854;9.158;2023-08-01T11:29:50;17.30;99.90
14016;DHT22;7083;48.854;9.158;2023-08-01T11:32:17;17.30;99.90
14016;DHT22;7083;48.854;9.158;2023-08-01T11:34:45;17.20;99.90
14016;DHT22;7083;48.854;9.158;2023-08-01T11:37:14;17.20;99.90
14016;DHT22;7083;48.854;9.158;2023-08-01T11:39:41;17.30;99.90
14016;DHT22;7083;48.854;9.158;2023-08-01T11:42:14;17.30;99.90
14016;DHT22;7083;48.854;9.158;2023-08-01T11:44:41;17.10;99.90
14016;DHT22;7083;48.854;9.158;2023-08-01T11:47:11;17.00;99.90
14016;DHT22;7083;48.854;9.158;2023-08-01T11:49:38;16.90;99.90
14016;DHT22;7083;48.854;9.158;2023-08-01T11:52:05;16.80;99.90
14016;DHT22;7083;48.854;9.158;2023-08-01T11:54:44;16.80;99.90
14016;DHT22;7083;48.854;9.158;2023-08-01T11:57:10;16.80;99.90
14016;DHT22;7083;48.854;9.158;2023-08-01T11:59:46;16.90;99.90
14016;DHT22;7083;48.854;9.158;2023-08-01T12:02:21;16.70;99.90
14016;DHT22;7083;48.854;9.158;2023-08-01T12:04:48;16.70;99.90
14016;DHT22;7083;48.854;9.158;2023-08-01T12:07:15;16.80;99.90
14016;DHT22;7083;48.854;9.158;2023-08-01T12:09:44;16.80;99.90
14016;DHT22;7083;48.854;9.158;2023-08-01T12:12:11;16.80;99.90
14016;DHT22;7083;48.854;9.158;2023-08-01T12:14:41;16.80;99.90
14016;DHT22;7083;48.854;9.158;2023-08-01T12:17:08;17.00;99.90
14016;DHT22;7083;48.854;9.158;2023-08-01T12:19:34;17.10;99.90
14016;DHT22;7083;48.854;9.158;2023-08-01T12:22:01;17.20;99.90
14016;DHT22;7083;48.854;9.158;2023-08-01T12:24:28;17.30;99.90
14016;DHT22;7083;48.854;9.158;2023-08-01T12:26:56;17.40;99.90
14016;DHT22;7083;48.854;9.158;2023-08-01T12:29:23;17.50;99.90
14016;DHT22;7083;48.854;9.158;2023-08-01T12:31:49;17.60;99.90
14016;DHT22;7083;48.854;9.158;2023-08-01T12:34:16;17.50;99.90
14016;DHT22;7083;48.854;9.158;2023-08-01T12:36:43;17.80;99.90
14016;DHT22;7083;48.854;9.158;2023-08-01T12:39:10;17.90;99.90
14016;DHT22;7083;48.854;9.158;2023-08-01T12:41:37;18.10;99.90
14016;DHT22;7083;48.854;9.158;2023-08-01T12:44:05;18.50;99.90
14016;DHT22;7083;48.854;9.158;2023-08-01T12:46:32;19.00;99.90
14016;DHT22;7083;48.854;9.158;2023-08-01T12:48:59;19.20;99.90
14016;DHT22;7083;48.854;9.158;2023-08-01T12:51:25;19.30;99.90
14016;DHT22;7083;48.854;9.158;2023-08-01T12:53:52;19.20;99.90
14016;DHT22;7083;48.854;9.158;2023-08-01T12:56:19;19.20;99.90
14016;DHT22;7083;48.854;9.158;2023-08-01T12:58:45;19.30;99.90
14016;DHT22;7083;48.854;9.158;2023-08-01T13:01:13;19.40;97.60
14016;DHT22;7083;48.854;9.158;2023-08-01T13:03:40;19.60;97.00
14016;DHT22;7083;48.854;9.158;2023-08-01T13:06:10;19.80;95.30
14016;DHT22;7083;48.854;9.158;2023-08-01T13:08:37;19.90;94.30
14016;DHT22;7083;48.854;9.158;2023-08-01T13:11:10;20.00;93.30
14016;DHT22;7083;48.854;9.158;2023-08-01T13:13:37;20.20;93.90
14016;DHT22;7083;48.854;9.158;2023-08-01T13:16:04;20.80;93.20
14016;DHT22;7083;48.854;9.158;2023-08-01T13:18:32;21.80;91.90
14016;DHT22;7083;48.854;9.158;2023-08-01T13:20:58;22.80;87.50
14016;DHT22;7083;48.854;9.158;2023-08-01T13:28:20;26.10;75.70
14016;DHT22;7083;48.854;9.158;2023-08-01T13:30:46;27.10;73.30
14016;DHT22;7083;48.854;9.158;2023-08-01T13:33:13;28.00;69.20
14016;DHT22;7083;48.854;9.158;2023-08-01T13:35:41;28.60;64.60
14016;DHT22;7083;48.854;9.158;2023-08-01T13:38:08;29.30;63.20
14016;DHT22;7083;48.854;9.158;2023-08-01T13:40:35;30.00;59.50
14016;DHT22;7083;48.854;9.158;2023-08-01T13:43:01;30.50;58.90
14016;DHT22;7083;48.854;9.158;2023-08-01T13:45:30;30.80;59.40
14016;DHT22;7083;48.854;9.158;2023-08-01T13:47:57;31.40;56.60
14016;DHT22;7083;48.854;9.158;2023-08-01T13:50:25;31.80;55.60
14016;DHT22;7083;48.854;9.158;2023-08-01T13:52:53;31.20;56.20
14016;DHT22;7083;48.854;9.158;2023-08-01T13:55:20;31.20;57.50
14016;DHT22;7083;48.854;9.158;2023-08-01T13:57:47;31.50;54.20
14016;DHT22;7083;48.854;9.158;2023-08-01T14:00:14;31.60;57.00
14016;DHT22;7083;48.854;9.158;2023-08-01T14:02:41;32.50;53.80
14016;DHT22;7083;48.854;9.158;2023-08-01T14:05:08;32.40;54.60
14016;DHT22;7083;48.854;9.158;2023-08-01T14:07:35;32.10;52.70
14016;DHT22;7083;48.854;9.158;2023-08-01T14:10:04;31.60;55.00
14016;DHT22;7083;48.854;9.158;2023-08-01T14:12:31;31.80;53.60
14016;DHT22;7083;48.854;9.158;2023-08-01T14:14:58;31.90;53.70
14016;DHT22;7083;48.854;9.158;2023-08-01T14:17:25;31.30;53.90
14016;DHT22;7083;48.854;9.158;2023-08-01T14:19:51;30.90;55.00
14016;DHT22;7083;48.854;9.158;2023-08-01T14:22:18;31.60;54.20
14016;DHT22;7083;48.854;9.158;2023-08-01T14:24:45;32.70;53.30
14016;DHT22;7083;48.854;9.158;2023-08-01T14:29:40;34.00;53.80
14016;DHT22;7083;48.854;9.158;2023-08-01T14:51:47;35.80;50.30
14016;DHT22;7083;48.854;9.158;2023-08-01T14:54:14;38.00;44.60
14016;DHT22;7083;48.854;9.158;2023-08-01T14:56:41;38.30;43.50
14016;DHT22;7083;48.854;9.158;2023-08-01T14:59:08;37.90;43.70
14016;DHT22;7083;48.854;9.158;2023-08-01T15:01:36;37.60;43.30
14016;DHT22;7083;48.854;9.158;2023-08-01T15:04:03;37.60;45.10
14016;DHT22;7083;48.854;9.158;2023-08-01T15:06:30;38.10;42.50
14016;DHT22;7083;48.854;9.158;2023-08-01T15:08:57;38.50;41.80
14016;DHT22;7083;48.854;9.158;2023-08-01T15:11:24;38.40;42.90
14016;DHT22;7083;48.854;9.158;2023-08-01T15:13:50;38.60;43.40
14016;DHT22;7083;48.854;9.158;2023-08-01T15:16:17;38.10;43.80
14016;DHT22;7083;48.854;9.158;2023-08-01T15:18:45;38.00;44.90
14016;DHT22;7083;48.854;9.158;2023-08-01T15:21:12;38.00;41.90
14016;DHT22;7083;48.854;9.158;2023-08-01T15:23:39;38.50;41.10
14016;DHT22;7083;48.854;9.158;2023-08-01T15:26:05;37.60;41.30
14016;DHT22;7083;48.854;9.158;2023-08-01T15:28:32;35.90;43.50
14016;DHT22;7083;48.854;9.158;2023-08-01T15:31:02;34.70;46.00
14016;DHT22;7083;48.854;9.158;2023-08-01T15:33:31;35.20;46.20
14016;DHT22;7083;48.854;9.158;2023-08-01T15:36:01;36.20;44.50
14016;DHT22;7083;48.854;9.158;2023-08-01T15:38:29;37.10;43.90
14016;DHT22;7083;48.854;9.158;2023-08-01T15:40:56;37.50;43.20
14016;DHT22;7083;48.854;9.158;2023-08-01T15:43:23;37.90;42.90
14016;DHT22;7083;48.854;9.158;2023-08-01T15:45:50;38.20;42.10
14016;DHT22;7083;48.854;9.158;2023-08-01T15:48:17;38.70;41.80
14016;DHT22;7083;48.854;9.158;2023-08-01T15:50:44;38.80;40.40
14016;DHT22;7083;48.854;9.158;2023-08-01T15:53:13;39.20;39.60
14016;DHT22;7083;48.854;9.158;2023-08-01T15:55:39;39.30;40.20
14016;DHT22;7083;48.854;9.158;2023-08-01T15:58:06;39.10;41.90
14016;DHT22;7083;48.854;9.158;2023-08-01T16:00:33;38.60;42.30
14016;DHT22;7083;48.854;9.158;2023-08-01T16:03:01;37.60;41.80
14016;DHT22;7083;48.854;9.158;2023-08-01T16:05:30;35.50;43.60
14016;DHT22;7083;48.854;9.158;2023-08-01T16:07:57;34.30;45.10
14016;DHT22;7083;48.854;9.158;2023-08-01T16:10:25;32.70;47.50
14016;DHT22;7083;48.854;9.158;2023-08-01T16:12:51;32.80;48.80